CHG2 weather

Harbour Grace Airport
Harbour Grace, Newfoundland and Labrador, Canada

Public forecast

Using degrees Celsius for public forecast. Weather courtesy of forecast.io.

Closest aviation weather report (METAR) to Harbour Grace Airport

Closest report is St. John's International Airport, 20.7 nm (38.3 km) E. Retrieved 2020/08/06 12:00 UTC (39 minutes ago):

CYYT 061200Z 26017KT 15SM OVC010 19/17 A2997 RMK SC8 SLP153 DENSITY ALT 1000FT

Closest aviation forecast (TAF) to Harbour Grace Airport

Closest forecast is St. John's International Airport, 20.7 nm (38.3 km) E. Retrieved 2020/08/06 12:41 UTC (0 seconds ago):

TAF CYYT 061138Z 0612/0712 27015G25KT P6SM OVC012 TEMPO 0612/0616 SCT012 BKN120 FM061600 25015G25KT P6SM SCT015 SCT240 FM070200 26015KT P6SM BKN008 FM070900 26015KT P6SM FEW008 RMK NXT FCST BY 061800Z